Time;durP1;ratioP1;P1;durP2;ratioP2;P2;SDS_P1;SDS_P2;PMS_P1;PMS_P2;Temp;Humidity;BMP_temperature;BMP_pressure;BME280_temperature;BME280_humidity;BME280_pressure;Samples;Min_cycle;Max_cycle;Signal;HPM_P1;HPM_P2
2023/08/31 00:00:31;;;;;;;17.65;12.13;;;;;;;21.29;87.00;98683.31;4981997;28;20038;-93
2023/08/31 00:02:57;;;;;;;16.58;11.15;;;;;;;21.24;87.14;98675.38;4965520;28;20039;-94
2023/08/31 00:05:24;;;;;;;15.95;10.75;;;;;;;21.23;86.44;98682.00;4964072;28;20034;-94
2023/08/31 00:07:50;;;;;;;18.45;11.48;;;;;;;21.30;86.45;98682.16;4965010;28;20097;-94
2023/08/31 00:10:17;;;;;;;14.55;11.13;;;;;;;21.27;86.50;98671.91;4980529;28;20084;-92
2023/08/31 00:12:42;;;;;;;13.15;10.60;;;;;;;21.30;86.14;98668.47;4964899;28;20034;-95
2023/08/31 00:15:09;;;;;;;16.48;10.57;;;;;;;21.22;86.95;98664.78;4964014;28;20101;-94
2023/08/31 00:17:34;;;;;;;16.73;11.25;;;;;;;21.12;87.51;98666.13;4963804;28;20045;-94
2023/08/31 00:20:00;;;;;;;16.70;11.60;;;;;;;21.04;88.09;98675.31;4964550;28;20479;-94
2023/08/31 00:22:25;;;;;;;17.02;11.95;;;;;;;20.93;87.87;98664.13;4981524;28;20037;-95
2023/08/31 00:24:51;;;;;;;15.02;10.82;;;;;;;20.95;88.06;98664.56;4963835;28;20038;-95
2023/08/31 00:27:17;;;;;;;15.15;11.20;;;;;;;21.16;86.76;98685.38;4964384;28;20035;-95
2023/08/31 00:29:45;;;;;;;14.13;11.10;;;;;;;21.20;85.89;98673.34;4980379;28;20093;-94
2023/08/31 00:32:14;;;;;;;16.00;10.63;;;;;;;21.24;85.48;98676.16;4965057;28;20014;-94
2023/08/31 00:34:39;;;;;;;17.35;11.63;;;;;;;21.29;85.58;98677.81;4964791;28;20065;-94
2023/08/31 00:37:05;;;;;;;17.10;11.25;;;;;;;21.33;85.58;98685.00;4962773;28;20057;-94
2023/08/31 00:39:31;;;;;;;14.50;10.63;;;;;;;21.22;86.25;98685.91;4980037;28;20030;-93
2023/08/31 00:41:56;;;;;;;18.67;10.70;;;;;;;21.08;86.83;98681.66;4964963;28;20030;-95
2023/08/31 00:44:22;;;;;;;15.07;11.60;;;;;;;21.13;87.30;98706.03;4963017;28;20041;-94
2023/08/31 00:46:47;;;;;;;21.00;11.40;;;;;;;21.09;86.50;98680.53;4964733;28;20425;-94
2023/08/31 00:49:14;;;;;;;17.35;11.82;;;;;;;21.03;87.42;98681.94;4962847;28;20034;-95
2023/08/31 00:51:40;;;;;;;18.40;10.80;;;;;;;20.82;88.19;98684.97;4980024;28;20077;-94
2023/08/31 00:54:06;;;;;;;15.63;11.30;;;;;;;20.64;88.51;98675.53;4964099;28;20045;-95
2023/08/31 00:56:32;;;;;;;16.02;11.68;;;;;;;20.62;88.57;98675.09;4963502;28;20034;-94
2023/08/31 00:58:58;;;;;;;19.58;11.25;;;;;;;20.54;89.10;98693.22;4963750;28;20031;-94
2023/08/31 01:01:33;;;;;;;16.45;12.07;;;;;;;20.49;89.17;98691.53;4962877;28;20511;-94
2023/08/31 01:04:32;;;;;;;22.20;12.13;;;;;;;20.52;89.54;98710.00;4979566;28;20428;-95
2023/08/31 01:07:04;;;;;;;20.92;12.63;;;;;;;20.41;90.17;98700.69;4979011;28;20031;-95
2023/08/31 01:09:46;;;;;;;19.15;12.73;;;;;;;20.46;90.47;98708.66;4981098;28;20046;-96
2023/08/31 01:12:18;;;;;;;;;;;;;;;20.62;89.62;98711.44;4963960;28;20108;-95
2023/08/31 01:15:07;;;;;;;22.17;12.10;;;;;;;20.65;89.17;98699.81;4996179;28;19913;-94
2023/08/31 01:17:33;;;;;;;20.05;12.90;;;;;;;20.60;88.95;98708.25;4994778;28;20030;-94
2023/08/31 01:19:59;;;;;;;19.48;12.73;;;;;;;20.63;89.12;98718.50;4980444;28;20038;-94
2023/08/31 01:22:43;;;;;;;23.38;13.48;;;;;;;20.62;89.48;98718.84;4962774;28;20058;-93
2023/08/31 01:25:09;;;;;;;17.17;13.45;;;;;;;20.50;89.54;98704.09;4978803;28;20034;-94
2023/08/31 01:27:35;;;;;;;19.58;14.20;;;;;;;20.51;89.87;98704.88;4962413;28;20070;-95
2023/08/31 01:30:02;;;;;;;20.90;14.73;;;;;;;20.54;89.93;98709.63;4962768;28;20034;-94
2023/08/31 01:32:28;;;;;;;22.65;14.52;;;;;;;20.46;90.59;98694.16;4963124;28;20034;-94
2023/08/31 01:34:54;;;;;;;20.88;14.13;;;;;;;20.40;91.01;98699.13;4963894;28;20042;-94
2023/08/31 01:37:29;;;;;;;19.02;13.95;;;;;;;20.51;90.42;98705.66;4962167;28;20496;-95
2023/08/31 01:40:14;;;;;;;22.38;14.15;;;;;;;20.52;90.29;98711.91;4963953;28;20049;-94
2023/08/31 01:42:44;;;;;;;20.42;13.38;;;;;;;20.49;89.76;98702.47;4979316;28;20161;-95
2023/08/31 01:45:11;;;;;;;19.00;14.45;;;;;;;20.53;89.53;98700.63;4963545;28;20038;-94
2023/08/31 01:47:36;;;;;;;22.15;14.63;;;;;;;20.37;89.70;98689.66;4963399;28;20495;-95
2023/08/31 01:50:01;;;;;;;24.70;14.63;;;;;;;20.27;90.92;98692.13;4963562;28;20045;-94
2023/08/31 01:52:27;;;;;;;22.05;13.88;;;;;;;20.23;91.25;98700.22;4962606;28;20069;-95
2023/08/31 01:54:52;;;;;;;18.38;13.95;;;;;;;20.10;91.27;98688.53;4964649;28;20081;-95
2023/08/31 01:57:18;;;;;;;21.70;13.77;;;;;;;20.21;91.01;98694.31;4964702;28;20030;-96
2023/08/31 01:59:43;;;;;;;20.00;12.88;;;;;;;20.28;90.64;98715.59;4963217;28;20045;-96
2023/08/31 02:02:20;;;;;;;22.92;14.05;;;;;;;20.17;90.63;98696.16;4980153;28;20027;-96
2023/08/31 02:04:55;;;;;;;15.75;12.38;;;;;;;20.22;90.46;98697.84;4986324;28;20035;-96
2023/08/31 02:07:29;;;;;;;18.45;11.25;;;;;;;20.28;89.29;98689.03;4988573;28;20027;-96
2023/08/31 02:10:00;;;;;;;20.90;11.73;;;;;;;20.31;89.17;98709.41;4987658;28;20073;-96
2023/08/31 02:12:35;;;;;;;19.87;12.10;;;;;;;20.30;89.43;98692.22;4987417;28;20035;-96
2023/08/31 02:15:04;;;;;;;13.98;11.45;;;;;;;20.47;88.54;98701.25;4988318;28;20018;-96
2023/08/31 02:17:48;;;;;;;15.10;11.77;;;;;;;20.32;89.00;98702.81;4986921;28;20122;-95
2023/08/31 02:20:17;;;;;;;19.60;12.82;;;;;;;20.27;90.19;98717.50;5004776;28;20050;-96
2023/08/31 02:22:52;;;;;;;23.80;12.82;;;;;;;20.08;90.44;98696.31;4987004;28;20026;-96
2023/08/31 02:25:21;;;;;;;20.38;13.25;;;;;;;20.12;90.82;98715.53;4987215;28;20089;-96
2023/08/31 02:27:46;;;;;;;17.13;12.60;;;;;;;19.98;90.35;98692.16;4987064;28;20040;-96
2023/08/31 02:30:14;;;;;;;14.32;12.77;;;;;;;20.04;90.11;98706.34;4986276;28;20018;-96
2023/08/31 02:32:52;;;;;;;16.27;12.68;;;;;;;19.96;90.88;98705.38;4985952;28;20031;-96
2023/08/31 02:35:22;;;;;;;17.77;12.50;;;;;;;19.92;89.92;98699.00;4987087;28;20023;-96
2023/08/31 02:37:50;;;;;;;17.55;11.90;;;;;;;19.97;89.72;98696.00;4986556;28;20034;-95
2023/08/31 02:40:20;;;;;;;22.30;12.00;;;;;;;19.99;89.42;98691.00;4989476;28;20038;-96
2023/08/31 02:42:49;;;;;;;13.35;11.48;;;;;;;20.05;89.24;98697.00;4991192;28;20030;-96
2023/08/31 02:45:19;;;;;;;22.00;11.88;;;;;;;20.04;89.90;98702.81;4990783;28;20082;-96
2023/08/31 02:47:49;;;;;;;20.92;12.15;;;;;;;20.05;90.45;98716.16;4990634;28;20089;-96
2023/08/31 02:50:15;;;;;;;17.58;12.55;;;;;;;19.95;91.33;98716.63;4983760;28;20034;-96
2023/08/31 02:52:43;;;;;;;16.95;12.63;;;;;;;20.01;90.98;98717.19;4966086;28;20035;-95
2023/08/31 02:55:08;;;;;;;14.80;11.90;;;;;;;19.95;90.85;98709.22;4966742;28;20030;-95
2023/08/31 02:57:34;;;;;;;17.83;12.23;;;;;;;19.88;91.23;98708.22;4968353;28;20037;-96
2023/08/31 02:59:59;;;;;;;16.92;13.23;;;;;;;19.91;90.50;98711.06;4966733;28;20053;-96
2023/08/31 03:02:25;;;;;;;17.92;12.27;;;;;;;19.90;90.67;98719.59;4983985;28;20038;-96
2023/08/31 03:04:50;;;;;;;14.63;12.25;;;;;;;19.93;89.78;98729.84;4966409;28;20101;-96
2023/08/31 03:07:16;;;;;;;14.23;11.30;;;;;;;19.99;90.03;98729.25;4967369;28;20404;-96
2023/08/31 03:09:42;;;;;;;13.88;10.55;;;;;;;20.12;88.85;98723.75;4967024;28;20030;-96
2023/08/31 03:12:07;;;;;;;14.98;9.20;;;;;;;20.18;86.62;98734.06;4966874;28;20033;-96
2023/08/31 03:14:33;;;;;;;15.85;9.25;;;;;;;20.28;85.46;98738.25;4967572;28;20054;-96
2023/08/31 03:16:58;;;;;;;10.75;9.20;;;;;;;20.10;85.55;98735.00;4967142;28;20038;-96
2023/08/31 03:19:24;;;;;;;12.43;8.88;;;;;;;20.07;85.95;98738.47;4984137;28;20054;-96
2023/08/31 03:21:50;;;;;;;12.20;8.90;;;;;;;20.09;85.98;98743.59;4986213;28;20058;-96
2023/08/31 03:24:15;;;;;;;14.95;8.90;;;;;;;20.27;84.78;98749.53;4967127;28;20393;-96
2023/08/31 03:26:41;;;;;;;14.45;8.68;;;;;;;20.17;84.17;98727.03;4968236;28;20049;-96
2023/08/31 03:29:07;;;;;;;14.05;8.90;;;;;;;20.15;85.00;98725.75;4984873;28;20050;-96
2023/08/31 03:31:33;;;;;;;13.18;8.55;;;;;;;20.25;84.17;98736.19;4966647;28;20038;-96
2023/08/31 03:34:08;;;;;;;16.55;9.68;;;;;;;20.02;86.06;98727.75;4984544;28;20114;-96
2023/08/31 03:36:33;;;;;;;11.15;9.48;;;;;;;19.96;86.36;98732.69;4971296;28;20500;-96
2023/08/31 03:38:59;;;;;;;15.95;9.23;;;;;;;19.95;85.61;98744.75;5000524;28;20042;-96
2023/08/31 03:41:27;;;;;;;11.43;9.32;;;;;;;19.96;85.06;98740.06;4984967;28;20436;-96
2023/08/31 03:43:53;;;;;;;11.50;8.60;;;;;;;20.06;84.31;98738.78;4983025;28;20053;-96
2023/08/31 03:46:18;;;;;;;10.57;8.90;;;;;;;20.06;84.50;98727.88;4985226;28;20073;-96
2023/08/31 03:48:44;;;;;;;12.80;8.98;;;;;;;20.08;85.59;98747.44;4984698;28;20096;-96
2023/08/31 03:51:09;;;;;;;13.02;8.98;;;;;;;20.22;84.46;98745.13;4999373;28;20069;-96
2023/08/31 03:53:35;;;;;;;10.30;8.52;;;;;;;20.20;84.10;98747.41;5016950;28;20524;-96
2023/08/31 03:56:01;;;;;;;16.98;8.75;;;;;;;20.28;83.01;98741.00;5000641;28;20046;-96
2023/08/31 03:58:27;;;;;;;11.18;8.10;;;;;;;20.42;82.35;98756.19;5001262;28;20388;-95
2023/08/31 04:00:55;;;;;;;13.02;7.35;;;;;;;20.37;82.42;98755.28;5000707;28;20022;-96
2023/08/31 04:03:21;;;;;;;13.13;8.20;;;;;;;20.44;81.54;98751.16;4983439;28;20042;-96
2023/08/31 04:05:49;;;;;;;14.07;9.93;;;;;;;20.43;81.53;98755.84;4985036;28;20504;-96
2023/08/31 04:08:59;;;;;;;;;;;;;;;;;;;;;
2023/08/31 07:56:41;;;;;;;6.40;4.22;;;;;;;27.28;47.13;98948.84;2775338;23;21555;-94
2023/08/31 08:27:36;;;;;;;4.55;2.85;;;;;;;27.50;42.42;98964.31;3827172;23;20303;-95
2023/08/31 08:30:06;;;;;;;5.90;3.70;;;;;;;27.44;42.76;98967.84;4966049;28;20114;-95
2023/08/31 08:32:33;;;;;;;5.28;3.38;;;;;;;27.27;42.73;98958.31;4951965;28;20037;-96
2023/08/31 08:35:01;;;;;;;5.38;2.75;;;;;;;27.11;42.07;98953.91;4937374;28;20042;-96
2023/08/31 08:37:29;;;;;;;4.60;2.80;;;;;;;27.25;41.90;98952.38;4940511;28;20034;-95
2023/08/31 08:56:52;;;;;;;6.75;2.55;;;;;;;27.37;42.48;98963.06;5178558;23;20089;-96
2023/08/31 08:59:21;;;;;;;5.43;2.60;;;;;;;27.24;43.04;98948.84;5064917;23;20814;-96
2023/08/31 09:01:49;;;;;;;4.93;2.50;;;;;;;27.48;42.38;98952.84;4955116;28;20050;-96
2023/08/31 09:04:30;;;;;;;;;;;;;;;;;;;;;
2023/08/31 09:17:22;;;;;;;3.95;2.40;;;;;;;28.04;40.13;98961.59;5182429;23;20592;-96
2023/08/31 09:34:38;;;;;;;6.78;3.08;;;;;;;27.93;39.34;98961.59;5878662;23;20051;-96
2023/08/31 09:37:29;;;;;;;;;;;;;;;;;;;;;
2023/08/31 09:45:33;;;;;;;4.45;2.97;;;;;;;27.48;41.12;98960.34;4984186;28;20058;-96
2023/08/31 09:50:37;;;;;;;4.03;2.50;;;;;;;27.17;42.08;98957.09;5406608;23;20085;-96
2023/08/31 09:58:50;;;;;;;7.22;3.00;;;;;;;27.15;41.28;98968.53;5264229;23;20059;-96
2023/08/31 10:01:35;;;;;;;6.38;3.25;;;;;;;27.26;42.57;98967.78;4975157;28;20046;-95
2023/08/31 10:08:01;;;;;;;5.20;2.67;;;;;;;27.79;41.91;98962.34;5458422;23;20115;-96
2023/08/31 10:10:28;;;;;;;5.18;2.78;;;;;;;28.12;41.47;98973.44;4961189;28;20039;-96
2023/08/31 10:13:37;;;;;;;6.10;3.17;;;;;;;28.26;39.67;98959.56;4959805;28;20114;-96
2023/08/31 10:16:07;;;;;;;5.40;2.70;;;;;;;28.51;39.47;98967.06;4940763;29;20083;-96
2023/08/31 10:25:06;;;;;;;3.55;2.40;;;;;;;28.65;38.82;98964.25;4969555;28;20073;-96
2023/08/31 11:07:56;;;;;;;4.38;2.47;;;;;;;27.89;41.36;99002.31;5660112;23;20054;-96
2023/08/31 11:10:35;;;;;;;5.72;3.47;;;;;;;27.65;43.36;99016.88;4962517;28;20046;-96
2023/08/31 11:21:00;;;;;;;6.57;2.45;;;;;;;26.97;47.17;99009.91;5003703;26;19921;-96
2023/08/31 11:23:46;;;;;;;4.75;2.42;;;;;;;26.52;48.40;98994.63;4990544;28;20054;-96
2023/08/31 11:26:25;;;;;;;;;;;;;;;;;;;;;
2023/08/31 11:32:58;;;;;;;;;;;;;;;;;;;;;
2023/08/31 11:35:24;;;;;;;8.57;3.35;;;;;;;25.55;53.10;99010.38;4929063;29;20115;-95
2023/08/31 11:48:07;;;;;;;4.53;2.85;;;;;;;25.66;51.60;99029.78;4990136;28;20128;-96
2023/08/31 11:50:55;;;;;;;5.35;2.88;;;;;;;25.70;50.43;99005.81;4934884;29;20043;-96
2023/08/31 11:53:21;;;;;;;10.20;4.38;;;;;;;25.80;52.17;99013.38;4914524;29;20028;-95
2023/08/31 11:55:51;;;;;;;5.30;3.00;;;;;;;25.93;50.57;99011.16;4908681;29;20039;-95
2023/08/31 11:58:24;;;;;;;7.72;3.22;;;;;;;26.07;52.52;99021.53;4911061;29;20103;-95
2023/08/31 12:01:03;;;;;;;5.45;3.38;;;;;;;26.32;51.92;99007.94;4938718;28;20054;-96
2023/08/31 12:03:52;;;;;;;;;;;;;;;;;;;;;
2023/08/31 12:13:11;;;;;;;6.93;3.20;;;;;;;26.07;51.42;98980.94;4968231;28;20098;-96
2023/08/31 12:16:02;;;;;;;5.63;2.80;;;;;;;26.25;51.34;98971.97;4938698;29;20050;-96
2023/08/31 12:19:30;;;;;;;4.93;2.95;;;;;;;26.39;50.48;98999.69;4944763;29;20039;-96
2023/08/31 12:29:59;;;;;;;7.78;2.92;;;;;;;26.96;48.78;98999.25;4883929;29;20430;-96
2023/08/31 12:32:25;;;;;;;7.40;3.50;;;;;;;26.95;48.74;98990.16;4908958;29;20045;-96
2023/08/31 12:42:11;;;;;;;;;;;;;;;;;;;;;
2023/08/31 12:48:27;;;;;;;;;;;;;;;27.48;48.07;98969.44;4994381;28;20115;-96
2023/08/31 12:51:00;;;;;;;19.92;16.63;;;;;;;27.58;47.46;98948.47;4991761;28;20016;-96
2023/08/31 12:53:53;;;;;;;92.13;70.15;;;;;;;27.61;46.43;98944.94;4972299;28;20131;-95
2023/08/31 12:56:28;;;;;;;8.07;4.97;;;;;;;27.41;46.81;98939.78;4970804;28;20038;-96
2023/08/31 12:59:26;;;;;;;10.52;5.95;;;;;;;27.60;46.36;98922.03;4965479;28;20042;-96
2023/08/31 13:01:57;;;;;;;7.68;4.00;;;;;;;27.84;45.73;98930.72;4935607;29;20504;-96
2023/08/31 13:04:23;;;;;;;8.43;3.97;;;;;;;28.10;45.23;98931.50;4898764;29;20031;-96
2023/08/31 13:06:49;;;;;;;5.47;3.10;;;;;;;28.25;44.68;98941.38;4912714;29;20395;-96
2023/08/31 13:09:15;;;;;;;8.25;3.40;;;;;;;28.34;44.76;98929.91;4893019;29;20046;-95
2023/08/31 13:11:51;;;;;;;7.95;3.72;;;;;;;28.37;45.24;98937.41;4901154;29;20047;-96
2023/08/31 13:14:34;;;;;;;10.45;3.58;;;;;;;28.47;44.04;98933.81;4872046;29;20030;-96
2023/08/31 14:09:19;;;;;;;8.18;6.40;;;;;;;27.83;47.15;98976.19;5100972;23;20051;-96
2023/08/31 16:01:47;;;;;;;5.40;3.88;;;;;;;26.45;52.62;98937.41;5483944;23;20486;-96
2023/08/31 17:12:43;;;;;;;13.10;5.95;;;;;;;24.96;57.36;98991.56;5400045;23;20050;-96
